createdAt,value
2019-05-06T00:00:59.824Z,91.99
2019-05-06T00:01:59.637Z,91.42
2019-05-06T00:02:59.532Z,91.71
2019-05-06T00:04:00.961Z,91.42
2019-05-06T00:04:59.328Z,91.71
2019-05-06T00:05:59.216Z,91.42
2019-05-06T00:06:59.110Z,92.09
2019-05-06T00:07:59.007Z,91.61
2019-05-06T00:08:58.903Z,91.99
2019-05-06T00:09:58.793Z,91.71
2019-05-06T00:10:58.688Z,91.52
2019-05-06T00:11:58.589Z,91.99
2019-05-06T00:12:58.478Z,91.71
2019-05-06T00:13:58.406Z,91.52
2019-05-06T00:14:58.330Z,91.42
2019-05-06T00:15:58.169Z,91.99
2019-05-06T00:16:58.729Z,91.71
2019-05-06T00:17:57.950Z,91.99
2019-05-06T00:18:57.848Z,91.52
2019-05-06T00:19:57.743Z,92.09
2019-05-06T00:20:57.705Z,91.61
2019-05-06T00:21:57.532Z,92.37
2019-05-06T00:22:57.426Z,91.99
2019-05-06T00:23:57.321Z,91.99
2019-05-06T00:24:57.218Z,92.28
2019-05-06T00:25:57.111Z,92.18
2019-05-06T00:26:57.737Z,91.80
2019-05-06T00:27:56.908Z,92.18
2019-05-06T00:28:56.800Z,92.18
2019-05-06T00:29:56.692Z,92.28
2019-05-06T00:31:09.335Z,91.99
2019-05-06T00:31:56.484Z,91.71
2019-05-06T00:32:56.377Z,92.18
2019-05-06T00:33:56.307Z,91.89
2019-05-06T00:34:56.168Z,91.89
2019-05-06T00:35:56.061Z,91.52
2019-05-06T00:36:55.956Z,91.99
2019-05-06T00:37:55.852Z,92.18
2019-05-06T00:38:55.748Z,92.28
2019-05-06T00:39:55.642Z,91.99
2019-05-06T00:40:55.538Z,92.56
2019-05-06T00:41:55.433Z,91.99
2019-05-06T00:42:55.328Z,91.99
2019-05-06T00:43:55.224Z,92.18
2019-05-06T00:44:55.118Z,91.89
2019-05-06T00:45:55.016Z,92.28
2019-05-06T00:46:54.911Z,91.99
2019-05-06T00:47:54.835Z,91.61
2019-05-06T00:48:54.708Z,92.09
2019-05-06T00:49:54.757Z,92.18
2019-05-06T00:50:54.490Z,92.47
2019-05-06T00:51:55.044Z,92.18
2019-05-06T00:52:54.361Z,91.99
2019-05-06T00:53:54.499Z,91.99
2019-05-06T00:54:54.696Z,92.18
2019-05-06T00:55:53.967Z,92.28
2019-05-06T00:56:54.195Z,92.94
2019-05-06T00:57:54.459Z,92.75
2019-05-06T00:58:54.404Z,92.51
2019-05-06T00:59:53.870Z,92.56
2019-05-06T01:00:53.881Z,92.75
2019-05-06T01:01:53.876Z,92.61
2019-05-06T01:02:54.303Z,92.80
2019-05-06T01:03:53.681Z,92.80
2019-05-06T01:04:54.162Z,92.99
2019-05-06T01:05:54.230Z,93.08
2019-05-06T01:06:54.428Z,92.71
2019-05-06T01:07:54.732Z,92.51
2019-05-06T01:08:54.321Z,92.51
2019-05-06T01:09:54.135Z,92.90
2019-05-06T01:10:54.349Z,92.80
2019-05-06T01:11:54.069Z,92.23
2019-05-06T01:12:54.350Z,92.80
2019-05-06T01:13:52.085Z,92.51
2019-05-06T01:14:54.366Z,92.80
2019-05-06T01:15:51.878Z,92.61
2019-05-06T01:16:51.772Z,92.99
2019-05-06T01:17:53.735Z,92.80
2019-05-06T01:18:51.564Z,93.27
2019-05-06T01:19:53.962Z,92.51
2019-05-06T01:20:51.354Z,93.18
2019-05-06T01:21:51.249Z,93.27
2019-05-06T01:22:51.145Z,92.71
2019-05-06T01:23:51.042Z,93.18
2019-05-06T01:24:50.938Z,93.37
2019-05-06T01:25:50.833Z,93.37
2019-05-06T01:26:50.729Z,93.37
2019-05-06T01:27:50.625Z,92.61
2019-05-06T01:28:50.518Z,93.37
2019-05-06T01:29:50.422Z,93.37
2019-05-06T01:30:50.314Z,93.37
2019-05-06T01:31:50.238Z,93.46
2019-05-06T01:32:50.102Z,92.90
2019-05-06T01:33:50.000Z,93.18
2019-05-06T01:34:49.895Z,93.46
2019-05-06T01:35:49.790Z,93.37
2019-05-06T01:36:49.687Z,93.56
2019-05-06T01:37:49.582Z,93.27
2019-05-06T01:38:49.479Z,93.27
2019-05-06T01:39:49.372Z,93.08
2019-05-06T01:40:49.281Z,93.27
2019-05-06T01:41:49.168Z,93.18
2019-05-06T01:42:49.066Z,93.18
2019-05-06T01:43:48.959Z,93.27
2019-05-06T01:44:48.852Z,93.18
2019-05-06T01:45:48.753Z,92.56
2019-05-06T01:46:48.643Z,93.04
2019-05-06T01:47:48.540Z,92.94
2019-05-06T01:48:48.434Z,93.32
2019-05-06T01:49:48.331Z,92.94
2019-05-06T01:50:48.276Z,92.56
2019-05-06T01:51:48.127Z,92.66
2019-05-06T01:52:48.015Z,92.47
2019-05-06T01:53:47.913Z,92.66
2019-05-06T01:54:47.808Z,92.85
2019-05-06T01:55:47.706Z,92.75
2019-05-06T01:56:47.598Z,92.56
2019-05-06T01:57:47.496Z,92.56
2019-05-06T01:58:47.396Z,92.47
2019-05-06T01:59:47.287Z,92.56
2019-05-06T02:00:47.181Z,92.75
2019-05-06T02:01:57.323Z,92.71
2019-05-06T02:02:46.974Z,92.52
2019-05-06T02:03:46.869Z,92.23
2019-05-06T02:04:46.762Z,92.33
2019-05-06T02:05:46.662Z,92.04
2019-05-06T02:06:46.561Z,92.04
2019-05-06T02:07:46.451Z,91.85
2019-05-06T02:08:46.345Z,91.38
2019-05-06T02:09:46.263Z,91.75
2019-05-06T02:10:46.214Z,91.94
2019-05-06T02:11:47.939Z,90.90
2019-05-06T02:12:45.927Z,90.81
2019-05-06T02:13:45.823Z,91.00
2019-05-06T02:14:45.717Z,89.95
2019-05-06T02:15:45.613Z,89.95
2019-05-06T02:16:45.507Z,90.14
2019-05-06T02:17:45.429Z,90.33
2019-05-06T02:18:45.298Z,89.48
2019-05-06T02:19:45.195Z,89.81
2019-05-06T02:20:45.089Z,88.68
2019-05-06T02:21:44.984Z,89.39
2019-05-06T02:22:44.881Z,89.43
2019-05-06T02:23:44.775Z,88.87
2019-05-06T02:24:44.670Z,88.68
2019-05-06T02:25:44.726Z,88.68
2019-05-06T02:26:44.460Z,88.20
2019-05-06T02:27:44.489Z,88.20
2019-05-06T02:28:44.253Z,87.54
2019-05-06T02:29:44.166Z,87.63
2019-05-06T02:30:45.462Z,87.73
2019-05-06T02:31:45.974Z,87.06
2019-05-06T02:32:45.347Z,86.49
2019-05-06T02:33:44.765Z,86.87
2019-05-06T02:34:45.919Z,86.87
2019-05-06T02:35:45.461Z,86.11
2019-05-06T02:36:45.573Z,86.49
2019-05-06T02:37:46.054Z,86.30
2019-05-06T02:38:47.933Z,85.83
2019-05-06T02:39:43.761Z,85.83
2019-05-06T02:40:42.989Z,85.03
2019-05-06T02:41:43.089Z,85.31
2019-05-06T02:42:43.215Z,85.45
2019-05-06T02:43:43.461Z,84.98
2019-05-06T02:44:44.258Z,85.22
2019-05-06T02:45:43.319Z,84.27
2019-05-06T02:46:44.098Z,84.55
2019-05-06T02:47:43.032Z,83.98
2019-05-06T02:48:43.243Z,83.89
2019-05-06T02:49:44.218Z,83.98
2019-05-06T02:50:42.687Z,83.89
2019-05-06T02:51:44.222Z,83.42
2019-05-06T02:52:44.089Z,83.61
2019-05-06T02:53:42.960Z,83.89
2019-05-06T02:54:42.712Z,82.56
2019-05-06T02:55:43.081Z,82.09
2019-05-06T02:56:43.527Z,82.28
2019-05-06T02:57:43.676Z,82.47
2019-05-06T02:58:43.508Z,82.28
2019-05-06T02:59:43.938Z,82.09
2019-05-06T03:00:42.963Z,81.71
2019-05-06T03:01:43.287Z,81.33
2019-05-06T03:02:46.889Z,81.43
2019-05-06T03:03:43.367Z,80.19
2019-05-06T03:04:40.453Z,80.19
2019-05-06T03:05:43.593Z,80.29
2019-05-06T03:06:40.279Z,80.00
2019-05-06T03:07:43.224Z,79.72
2019-05-06T03:08:43.188Z,79.25
2019-05-06T03:09:39.925Z,79.25
2019-05-06T03:10:39.819Z,79.25
2019-05-06T03:11:39.717Z,79.82
2019-05-06T03:12:39.607Z,79.72
2019-05-06T03:13:39.503Z,78.58
2019-05-06T03:14:39.395Z,78.30
2019-05-06T03:15:39.291Z,78.49
2019-05-06T03:16:39.184Z,77.83
2019-05-06T03:17:39.076Z,78.77
2019-05-06T03:18:38.971Z,78.26
2019-05-06T03:19:38.866Z,77.16
2019-05-06T03:20:38.759Z,77.25
2019-05-06T03:21:38.653Z,76.65
2019-05-06T03:22:38.548Z,76.93
2019-05-06T03:23:38.440Z,76.74
2019-05-06T03:24:38.334Z,76.55
2019-05-06T03:25:38.229Z,75.89
2019-05-06T03:26:38.160Z,75.98
2019-05-06T03:27:38.117Z,76.08
2019-05-06T03:28:37.923Z,75.70
2019-05-06T03:29:37.807Z,75.51
2019-05-06T03:30:37.757Z,76.27
2019-05-06T03:31:37.626Z,76.65
2019-05-06T03:32:48.216Z,75.42
2019-05-06T03:33:55.166Z,75.23
2019-05-06T03:34:57.129Z,75.70
2019-05-06T03:36:40.807Z,75.98
2019-05-06T03:37:36.957Z,74.75
2019-05-06T03:38:36.851Z,73.33
2019-05-06T03:39:36.745Z,72.29
2019-05-06T03:40:39.341Z,71.44
2019-05-06T03:41:36.536Z,70.49
2019-05-06T03:42:36.424Z,71.34
2019-05-06T03:43:36.320Z,71.91
2019-05-06T03:44:36.219Z,72.00
2019-05-06T03:45:36.137Z,70.97
2019-05-06T03:46:36.068Z,70.20
2019-05-06T03:47:35.901Z,70.30
2019-05-06T03:48:35.787Z,70.87
2019-05-06T03:49:35.682Z,71.25
2019-05-06T03:50:35.575Z,71.15
2019-05-06T03:51:35.469Z,71.25
2019-05-06T03:52:35.361Z,71.44
2019-05-06T03:53:35.256Z,71.15
2019-05-06T03:54:35.155Z,71.06
2019-05-06T03:55:35.047Z,71.62
2019-05-06T03:56:34.937Z,71.15
2019-05-06T03:57:36.214Z,71.62
2019-05-06T03:58:34.746Z,71.25
2019-05-06T03:59:34.620Z,70.30
2019-05-06T04:00:34.515Z,71.06
2019-05-06T04:01:34.407Z,71.53
2019-05-06T04:02:34.305Z,72.10
2019-05-06T04:03:47.088Z,72.29
2019-05-06T04:04:34.111Z,72.57
2019-05-06T04:05:34.057Z,72.57
2019-05-06T04:06:33.881Z,72.77
2019-05-06T04:07:34.105Z,72.77
2019-05-06T04:08:34.289Z,72.77
2019-05-06T04:09:36.749Z,72.19
2019-05-06T04:10:36.857Z,71.81
2019-05-06T04:11:35.888Z,72.00
2019-05-06T04:12:33.386Z,72.10
2019-05-06T04:13:33.317Z,72.00
2019-05-06T04:14:33.686Z,72.19
2019-05-06T04:15:34.187Z,72.48
2019-05-06T04:16:33.763Z,73.33
2019-05-06T04:17:33.004Z,73.14
2019-05-06T04:18:33.425Z,73.90
2019-05-06T04:19:33.346Z,74.28
2019-05-06T04:20:34.317Z,74.60
2019-05-06T04:21:32.946Z,74.88
2019-05-06T04:22:33.294Z,75.64
2019-05-06T04:23:33.136Z,75.36
2019-05-06T04:24:33.717Z,76.78
2019-05-06T04:25:33.978Z,76.40
2019-05-06T04:26:32.905Z,78.02
2019-05-06T04:27:33.493Z,79.34
2019-05-06T04:28:34.073Z,81.18
2019-05-06T04:29:33.102Z,84.45
2019-05-06T04:30:33.386Z,86.07
2019-05-06T04:31:33.553Z,86.91
2019-05-06T04:32:33.866Z,87.62
2019-05-06T04:33:33.172Z,88.20
2019-05-06T04:34:33.143Z,89.76
2019-05-06T04:35:33.571Z,89.76
2019-05-06T04:36:33.465Z,89.67
2019-05-06T04:37:33.612Z,89.95
2019-05-06T04:38:33.389Z,90.05
2019-05-06T04:39:32.942Z,90.37
2019-05-06T04:40:32.959Z,90.56
2019-05-06T04:41:30.178Z,90.75
2019-05-06T04:42:30.075Z,90.89
2019-05-06T04:43:33.376Z,90.80
2019-05-06T04:44:32.841Z,91.08
2019-05-06T04:45:29.763Z,91.28
2019-05-06T04:46:29.666Z,91.08
2019-05-06T04:47:32.607Z,90.61
2019-05-06T04:48:29.449Z,90.56
2019-05-06T04:49:29.344Z,91.42
2019-05-06T04:50:29.241Z,91.03
2019-05-06T04:51:29.138Z,91.42
2019-05-06T04:52:29.033Z,91.22
2019-05-06T04:53:28.931Z,91.99
2019-05-06T04:54:28.828Z,91.94
2019-05-06T04:55:28.725Z,91.75
2019-05-06T04:56:28.621Z,91.65
2019-05-06T04:57:28.519Z,91.84
2019-05-06T04:58:28.418Z,91.27
2019-05-06T04:59:28.319Z,91.94
2019-05-06T05:00:28.218Z,91.41
2019-05-06T05:01:28.108Z,91.70
2019-05-06T05:02:28.035Z,91.22
2019-05-06T05:03:27.989Z,91.31
2019-05-06T05:04:32.339Z,90.94
2019-05-06T05:05:27.702Z,90.36
2019-05-06T05:06:27.601Z,90.50
2019-05-06T05:07:27.499Z,90.41
2019-05-06T05:08:27.398Z,89.46
2019-05-06T05:09:27.298Z,88.41
2019-05-06T05:10:27.203Z,87.12
2019-05-06T05:11:27.096Z,85.25
2019-05-06T05:12:26.991Z,82.49
2019-05-06T05:13:26.893Z,80.49
2019-05-06T05:14:26.789Z,79.38
2019-05-06T05:15:26.691Z,78.20
2019-05-06T05:16:26.587Z,78.58
2019-05-06T05:17:26.488Z,78.30
2019-05-06T05:18:26.386Z,78.43
2019-05-06T05:19:26.284Z,77.57
2019-05-06T05:20:36.898Z,76.52
2019-05-06T05:21:26.087Z,75.70
2019-05-06T05:22:26.011Z,74.37
2019-05-06T05:23:25.949Z,73.22
2019-05-06T05:24:25.786Z,74.37
2019-05-06T05:25:25.686Z,74.42
2019-05-06T05:26:25.589Z,74.99
2019-05-06T05:27:25.488Z,75.18
2019-05-06T05:28:25.388Z,74.23
2019-05-06T05:29:25.294Z,73.98
2019-05-06T05:30:25.190Z,73.79
2019-05-06T05:31:25.091Z,73.22
2019-05-06T05:32:26.890Z,72.74
2019-05-06T05:33:24.893Z,73.32
2019-05-06T05:34:37.088Z,73.22
2019-05-06T05:35:24.696Z,72.26
2019-05-06T05:36:24.595Z,72.07
2019-05-06T05:37:24.504Z,71.69
2019-05-06T05:38:24.401Z,71.34
2019-05-06T05:39:24.300Z,70.58
2019-05-06T05:40:24.207Z,70.01
2019-05-06T05:41:24.103Z,69.72
2019-05-06T05:42:24.005Z,68.70
2019-05-06T05:43:23.930Z,69.49
2019-05-06T05:44:23.808Z,70.16
2019-05-06T05:45:23.713Z,71.84
2019-05-06T05:46:23.612Z,73.47
2019-05-06T05:47:23.517Z,74.96
2019-05-06T05:48:23.424Z,75.57
2019-05-06T05:49:24.551Z,73.41
2019-05-06T05:50:23.222Z,71.82
2019-05-06T05:51:23.126Z,70.73
2019-05-06T05:52:23.026Z,70.58
2019-05-06T05:53:22.925Z,69.09
2019-05-06T05:54:23.138Z,67.65
2019-05-06T05:55:22.734Z,66.63
2019-05-06T05:56:24.014Z,66.50
2019-05-06T05:57:22.635Z,66.70
2019-05-06T05:58:25.000Z,66.16
2019-05-06T05:59:23.154Z,66.16
2019-05-06T06:00:22.512Z,65.39
2019-05-06T06:01:23.266Z,65.39
2019-05-06T06:02:22.444Z,65.68
2019-05-06T06:03:22.109Z,65.01
2019-05-06T06:04:22.351Z,64.91
2019-05-06T06:05:21.895Z,64.59
2019-05-06T06:06:22.207Z,65.39
2019-05-06T06:07:22.939Z,64.56
2019-05-06T06:08:22.878Z,63.23
2019-05-06T06:09:22.258Z,64.43
2019-05-06T06:10:22.575Z,63.93
2019-05-06T06:11:22.962Z,66.47
2019-05-06T06:12:22.920Z,67.18
2019-05-06T06:13:22.279Z,66.73
2019-05-06T06:14:21.922Z,65.68
2019-05-06T06:15:22.390Z,65.68
2019-05-06T06:16:20.703Z,66.13
2019-05-06T06:17:20.607Z,66.03
2019-05-06T06:18:22.324Z,66.50
2019-05-06T06:19:22.068Z,67.08
2019-05-06T06:20:22.046Z,65.68
2019-05-06T06:21:27.146Z,65.77
2019-05-06T06:22:20.126Z,66.16
2019-05-06T06:23:20.032Z,66.09
2019-05-06T06:24:19.945Z,67.14
2019-05-06T06:25:23.348Z,67.52
2019-05-06T06:26:19.742Z,67.71
2019-05-06T06:27:19.651Z,67.52
2019-05-06T06:28:19.553Z,67.46
2019-05-06T06:29:19.456Z,67.08
2019-05-06T06:30:19.362Z,65.97
2019-05-06T06:31:19.267Z,64.72
2019-05-06T06:32:19.176Z,64.37
2019-05-06T06:33:19.078Z,63.60
2019-05-06T06:34:18.981Z,64.31
2019-05-06T06:35:19.234Z,64.82
2019-05-06T06:36:18.790Z,64.34
2019-05-06T06:37:18.695Z,64.53
2019-05-06T06:38:18.601Z,64.25
2019-05-06T06:39:18.504Z,63.73
2019-05-06T06:40:18.409Z,64.34
2019-05-06T06:41:18.315Z,65.61
2019-05-06T06:42:18.220Z,66.41
2019-05-06T06:43:18.122Z,65.97
2019-05-06T06:44:18.031Z,65.30
2019-05-06T06:45:17.933Z,65.61
2019-05-06T06:46:17.901Z,64.28
2019-05-06T06:47:17.742Z,64.15
2019-05-06T06:48:17.649Z,64.69
2019-05-06T06:49:17.555Z,66.28
2019-05-06T06:50:17.459Z,66.56
2019-05-06T06:51:17.368Z,67.30
2019-05-06T06:52:17.270Z,68.76
2019-05-06T06:53:17.175Z,68.44
2019-05-06T06:54:17.081Z,68.35
2019-05-06T06:55:18.542Z,67.91
2019-05-06T06:56:16.890Z,66.85
2019-05-06T06:57:16.795Z,66.35
2019-05-06T06:58:16.701Z,64.72
2019-05-06T06:59:16.609Z,62.94
2019-05-06T07:00:16.507Z,62.90
2019-05-06T07:01:16.414Z,63.29
2019-05-06T07:02:16.323Z,64.25
2019-05-06T07:03:16.227Z,64.25
2019-05-06T07:04:16.130Z,63.32
2019-05-06T07:05:25.467Z,61.63
2019-05-06T07:06:15.944Z,60.32
2019-05-06T07:07:15.897Z,59.45
2019-05-06T07:08:15.818Z,58.50
2019-05-06T07:09:15.658Z,58.05
2019-05-06T07:10:15.567Z,57.87
2019-05-06T07:11:15.473Z,60.61
2019-05-06T07:12:15.401Z,63.89
2019-05-06T07:13:15.368Z,64.72
2019-05-06T07:14:15.274Z,63.83
2019-05-06T07:15:15.179Z,62.43
2019-05-06T07:16:15.084Z,61.51
2019-05-06T07:17:14.988Z,60.77
2019-05-06T07:18:14.898Z,60.04
2019-05-06T07:19:14.803Z,61.95
2019-05-06T07:20:14.706Z,63.07
2019-05-06T07:21:14.615Z,62.14
2019-05-06T07:22:14.520Z,61.12
2019-05-06T07:23:14.426Z,60.55
2019-05-06T07:24:14.333Z,61.38
2019-05-06T07:25:14.238Z,61.22
2019-05-06T07:26:14.145Z,60.45
2019-05-06T07:27:14.047Z,61.03
2019-05-06T07:28:13.956Z,62.55
2019-05-06T07:29:23.071Z,62.94
2019-05-06T07:30:13.838Z,63.45
2019-05-06T07:31:21.778Z,61.79
2019-05-06T07:32:13.577Z,60.19
2019-05-06T07:33:13.484Z,60.06
2019-05-06T07:34:13.392Z,60.49
2019-05-06T07:35:13.209Z,61.66
2019-05-06T07:36:13.242Z,63.80
2019-05-06T07:37:13.021Z,62.55
2019-05-06T07:38:12.927Z,62.97
2019-05-06T07:39:15.118Z,61.47
2019-05-06T07:40:12.736Z,60.26
2019-05-06T07:41:14.710Z,58.54
2019-05-06T07:42:13.230Z,60.23
2019-05-06T07:43:12.762Z,60.06
2019-05-06T07:44:13.001Z,59.11
2019-05-06T07:45:12.478Z,59.37
2019-05-06T07:46:12.254Z,60.68
2019-05-06T07:47:13.405Z,62.65
2019-05-06T07:48:12.839Z,64.09
2019-05-06T07:49:12.606Z,64.09
2019-05-06T07:50:13.069Z,64.09
2019-05-06T07:51:12.410Z,64.72
2019-05-06T07:52:12.352Z,64.43
2019-05-06T07:53:13.153Z,65.74
2019-05-06T07:54:12.236Z,66.22
2019-05-06T07:55:12.027Z,66.94
2019-05-06T07:56:12.643Z,68.38
2019-05-06T07:57:12.721Z,69.20
2019-05-06T07:58:13.563Z,71.01
2019-05-06T07:59:12.672Z,71.04
2019-05-06T08:00:12.506Z,70.63
2019-05-06T08:01:13.260Z,70.34
2019-05-06T08:02:12.914Z,70.44
2019-05-06T08:03:13.282Z,71.58
2019-05-06T08:04:12.044Z,72.19
2019-05-06T08:05:10.326Z,72.28
2019-05-06T08:06:10.233Z,70.38
2019-05-06T08:07:12.377Z,70.28
2019-05-06T08:08:12.817Z,70.19
2019-05-06T08:09:09.938Z,69.81
2019-05-06T08:10:09.847Z,68.79
2019-05-06T08:11:12.224Z,67.58
2019-05-06T08:12:09.653Z,65.80
2019-05-06T08:13:09.544Z,63.80
2019-05-06T08:14:09.446Z,61.98
2019-05-06T08:15:09.354Z,62.05
2019-05-06T08:16:09.253Z,63.48
2019-05-06T08:17:09.151Z,63.89
2019-05-06T08:18:09.054Z,63.76
2019-05-06T08:19:08.954Z,63.57
2019-05-06T08:20:08.855Z,63.96
2019-05-06T08:21:08.755Z,64.81
2019-05-06T08:22:08.661Z,65.30
2019-05-06T08:23:08.561Z,65.17
2019-05-06T08:24:08.461Z,64.88
2019-05-06T08:25:08.362Z,65.23
2019-05-06T08:26:13.184Z,66.66
2019-05-06T08:27:08.168Z,68.47
2019-05-06T08:28:08.072Z,68.09
2019-05-06T08:29:07.968Z,67.17
2019-05-06T08:30:07.867Z,66.60
2019-05-06T08:31:07.789Z,65.67
2019-05-06T08:32:07.710Z,64.15
2019-05-06T08:33:07.571Z,63.23
2019-05-06T08:34:07.474Z,60.74
2019-05-06T08:35:09.871Z,60.58
2019-05-06T08:36:11.469Z,60.87
2019-05-06T08:37:07.177Z,61.06
2019-05-06T08:38:07.077Z,61.60
2019-05-06T08:39:06.981Z,61.89
2019-05-06T08:40:06.881Z,63.13
2019-05-06T08:41:06.780Z,63.73
2019-05-06T08:42:06.680Z,64.02
2019-05-06T08:43:06.609Z,65.83
2019-05-06T08:44:06.483Z,65.80
2019-05-06T08:45:07.199Z,65.64
2019-05-06T08:46:06.288Z,64.97
2019-05-06T08:47:06.186Z,64.40
2019-05-06T08:48:06.088Z,64.78
2019-05-06T08:49:05.993Z,65.23
2019-05-06T08:50:05.890Z,65.13
2019-05-06T08:51:08.991Z,65.33
2019-05-06T08:52:05.763Z,65.04
2019-05-06T08:53:05.594Z,65.13
2019-05-06T08:54:05.493Z,65.33
2019-05-06T08:55:05.396Z,66.09
2019-05-06T08:56:05.296Z,66.85
2019-05-06T08:57:05.202Z,67.33
2019-05-06T08:58:05.099Z,67.10
2019-05-06T08:59:04.997Z,67.48
2019-05-06T09:00:04.897Z,68.44
2019-05-06T09:01:04.799Z,68.05
2019-05-06T09:02:04.705Z,67.86
2019-05-06T09:03:04.684Z,66.31
2019-05-06T09:04:11.898Z,64.37
2019-05-06T09:05:04.399Z,61.02
2019-05-06T09:06:07.291Z,58.86
2019-05-06T09:07:04.213Z,56.91
2019-05-06T09:08:04.169Z,56.12
2019-05-06T09:09:04.009Z,57.24
2019-05-06T09:10:03.908Z,59.22
2019-05-06T09:11:03.810Z,61.51
2019-05-06T09:12:03.743Z,62.94
2019-05-06T09:13:03.689Z,61.38
2019-05-06T09:14:03.620Z,62.24
2019-05-06T09:15:03.674Z,61.69
2019-05-06T09:16:03.319Z,60.13
2019-05-06T09:17:03.222Z,58.76
2019-05-06T09:18:03.169Z,59.05
2019-05-06T09:19:04.393Z,56.88
2019-05-06T09:20:02.932Z,55.53
2019-05-06T09:21:03.036Z,53.77
2019-05-06T09:22:02.741Z,52.64
2019-05-06T09:23:04.608Z,51.14
2019-05-06T09:24:02.557Z,50.79
2019-05-06T09:25:02.614Z,52.09
2019-05-06T09:26:02.633Z,54.33
2019-05-06T09:27:02.992Z,55.64
2019-05-06T09:28:02.710Z,56.47
2019-05-06T09:29:02.419Z,57.75
2019-05-06T09:30:02.990Z,57.55
2019-05-06T09:31:02.258Z,57.04
2019-05-06T09:32:01.865Z,54.96
2019-05-06T09:33:02.606Z,52.50
2019-05-06T09:34:02.698Z,51.06
2019-05-06T09:35:02.975Z,50.34
2019-05-06T09:36:03.314Z,48.90
2019-05-06T09:37:03.298Z,48.57
2019-05-06T09:38:02.204Z,49.11
2019-05-06T09:39:02.270Z,50.34
2019-05-06T09:40:02.832Z,52.32
2019-05-06T09:41:04.787Z,53.08
2019-05-06T09:42:02.203Z,53.92
2019-05-06T09:43:04.474Z,54.66
2019-05-06T09:44:02.937Z,55.80
2019-05-06T09:45:02.339Z,56.67
2019-05-06T09:46:02.354Z,56.47
2019-05-06T09:47:02.413Z,55.41
2019-05-06T09:48:00.353Z,53.52
2019-05-06T09:49:00.260Z,51.92
2019-05-06T09:50:02.534Z,49.84
2019-05-06T09:51:02.747Z,49.19
2019-05-06T09:52:02.316Z,48.44
2019-05-06T09:53:01.922Z,47.20
2019-05-06T09:54:01.500Z,46.17
2019-05-06T09:54:59.672Z,44.65
2019-05-06T09:55:59.531Z,44.48
2019-05-06T09:56:59.429Z,43.71
2019-05-06T09:57:59.337Z,43.28
2019-05-06T09:58:59.245Z,42.77
2019-05-06T09:59:59.153Z,42.03
2019-05-06T10:00:59.065Z,40.78
2019-05-06T10:01:58.972Z,40.78
2019-05-06T10:02:58.894Z,40.49
2019-05-06T10:03:58.790Z,41.18
2019-05-06T10:04:58.707Z,41.05
2019-05-06T10:05:58.621Z,41.10
2019-05-06T10:07:00.069Z,42.30
2019-05-06T10:07:58.514Z,45.07
2019-05-06T10:08:58.428Z,46.94
2019-05-06T10:09:58.338Z,48.57
2019-05-06T10:10:59.884Z,49.69
2019-05-06T10:11:58.071Z,49.86
2019-05-06T10:12:57.981Z,50.91
2019-05-06T10:13:57.974Z,51.07
2019-05-06T10:14:57.883Z,50.98
2019-05-06T10:15:57.877Z,50.79
2019-05-06T10:16:57.704Z,50.60
2019-05-06T10:17:57.688Z,50.09
2019-05-06T10:18:57.516Z,50.55
2019-05-06T10:19:57.340Z,51.89
2019-05-06T10:20:57.247Z,53.10
2019-05-06T10:21:57.156Z,54.25
2019-05-06T10:22:57.060Z,55.18
2019-05-06T10:23:56.967Z,56.82
2019-05-06T10:24:56.876Z,57.85
2019-05-06T10:25:56.781Z,58.23
2019-05-06T10:26:56.686Z,60.52
2019-05-06T10:27:57.295Z,63.16
2019-05-06T10:28:56.497Z,62.59
2019-05-06T10:29:56.409Z,66.22
2019-05-06T10:30:56.334Z,66.12
2019-05-06T10:31:56.213Z,65.55
2019-05-06T10:32:56.118Z,64.02
2019-05-06T10:33:56.023Z,63.92
2019-05-06T10:34:55.926Z,62.97
2019-05-06T10:35:55.831Z,62.21
2019-05-06T10:37:04.579Z,61.73
2019-05-06T10:37:55.635Z,60.39
2019-05-06T10:38:55.565Z,60.14
2019-05-06T10:39:55.441Z,58.90
2019-05-06T10:41:01.017Z,58.70
2019-05-06T10:41:55.248Z,58.51
2019-05-06T10:42:55.150Z,57.75
2019-05-06T10:43:55.053Z,57.24
2019-05-06T10:44:54.956Z,55.71
2019-05-06T10:45:54.861Z,54.74
2019-05-06T10:46:54.768Z,53.28
2019-05-06T10:47:54.665Z,52.23
2019-05-06T10:48:54.572Z,49.69
2019-05-06T10:49:54.471Z,46.38
2019-05-06T10:50:54.377Z,45.68
2019-05-06T10:51:54.281Z,45.83
2019-05-06T10:52:54.186Z,46.17
2019-05-06T10:53:54.091Z,47.94
2019-05-06T10:54:53.995Z,49.45
2019-05-06T10:55:53.905Z,51.34
2019-05-06T10:56:57.044Z,53.13
2019-05-06T10:57:53.795Z,53.61
2019-05-06T10:58:53.620Z,54.37
2019-05-06T10:59:53.651Z,54.53
2019-05-06T11:00:53.427Z,55.40
2019-05-06T11:01:53.332Z,55.01
2019-05-06T11:02:53.240Z,55.30
2019-05-06T11:03:53.137Z,55.11
2019-05-06T11:04:53.173Z,54.41
2019-05-06T11:05:53.437Z,54.89
2019-05-06T11:06:52.852Z,54.34
2019-05-06T11:07:52.752Z,53.86
2019-05-06T11:08:52.657Z,52.48
2019-05-06T11:09:53.265Z,50.52
2019-05-06T11:10:53.399Z,47.89
2019-05-06T11:11:52.365Z,45.74
2019-05-06T11:12:52.391Z,43.96
2019-05-06T11:13:52.303Z,42.16
2019-05-06T11:14:53.182Z,42.06
2019-05-06T11:15:52.853Z,40.83
2019-05-06T11:16:51.888Z,40.99
2019-05-06T11:17:51.795Z,42.02
2019-05-06T11:18:53.532Z,43.24
2019-05-06T11:19:53.289Z,44.16
2019-05-06T11:20:55.733Z,45.84
2019-05-06T11:21:53.175Z,47.82
2019-05-06T11:22:52.864Z,48.95
2019-05-06T11:23:52.627Z,49.80
2019-05-06T11:24:51.144Z,50.84
2019-05-06T11:25:52.585Z,51.86
2019-05-06T11:26:53.281Z,53.00
2019-05-06T11:27:52.713Z,53.58
2019-05-06T11:28:52.086Z,54.63
2019-05-06T11:29:52.924Z,54.53
2019-05-06T11:30:52.875Z,54.25
2019-05-06T11:31:50.473Z,54.94
2019-05-06T11:32:50.377Z,54.18
2019-05-06T11:33:52.458Z,53.51
2019-05-06T11:34:52.458Z,53.49
2019-05-06T11:35:52.565Z,53.86
2019-05-06T11:36:52.190Z,54.37
2019-05-06T11:37:51.976Z,54.18
2019-05-06T11:38:49.800Z,54.37
2019-05-06T11:39:49.709Z,54.27
2019-05-06T11:40:49.606Z,53.58
2019-05-06T11:42:01.432Z,53.41
2019-05-06T11:42:49.474Z,53.32
2019-05-06T11:43:49.318Z,53.13
2019-05-06T11:44:49.221Z,53.32
2019-05-06T11:45:49.124Z,53.58
2019-05-06T11:46:49.030Z,54.44
2019-05-06T11:47:48.935Z,54.44
2019-05-06T11:48:48.832Z,54.53
2019-05-06T11:49:48.737Z,54.82
2019-05-06T11:50:48.636Z,54.34
2019-05-06T11:51:48.539Z,54.53
2019-05-06T11:52:48.441Z,54.72
2019-05-06T11:53:48.347Z,54.75
2019-05-06T11:54:48.245Z,54.27
2019-05-06T11:55:48.148Z,54.37
2019-05-06T11:56:51.873Z,54.02
2019-05-06T11:57:47.953Z,52.87
2019-05-06T11:58:47.856Z,51.24
2019-05-06T11:59:47.757Z,50.48
2019-05-06T12:00:47.659Z,50.48
2019-05-06T12:01:47.560Z,50.19
2019-05-06T12:02:48.867Z,50.41
2019-05-06T12:03:47.375Z,50.89
2019-05-06T12:04:47.266Z,50.89
2019-05-06T12:05:47.168Z,50.79
2019-05-06T12:06:47.075Z,50.50
2019-05-06T12:08:01.038Z,51.46
2019-05-06T12:08:46.877Z,52.42
2019-05-06T12:09:46.778Z,51.75
2019-05-06T12:10:46.690Z,51.36
2019-05-06T12:11:46.586Z,52.42
2019-05-06T12:12:46.482Z,52.22
2019-05-06T12:13:46.388Z,52.70
2019-05-06T12:14:46.295Z,52.54
2019-05-06T12:15:46.191Z,52.15
2019-05-06T12:16:46.100Z,52.34
2019-05-06T12:17:45.993Z,51.58
2019-05-06T12:18:45.898Z,51.48
2019-05-06T12:19:45.798Z,50.81
2019-05-06T12:20:45.707Z,50.34
2019-05-06T12:21:45.610Z,49.86
2019-05-06T12:22:45.509Z,49.09
2019-05-06T12:23:45.465Z,49.11
2019-05-06T12:24:45.314Z,49.88
2019-05-06T12:25:45.876Z,49.98
2019-05-06T12:26:45.119Z,49.11
2019-05-06T12:27:45.033Z,49.40
2019-05-06T12:28:44.924Z,49.21
2019-05-06T12:29:44.827Z,49.00
2019-05-06T12:30:44.732Z,49.29
2019-05-06T12:31:44.634Z,49.09
2019-05-06T12:32:44.537Z,49.09
2019-05-06T12:33:44.444Z,49.19
2019-05-06T12:34:44.353Z,49.57
2019-05-06T12:35:44.249Z,49.09
2019-05-06T12:36:44.152Z,49.11
2019-05-06T12:37:44.187Z,49.98
2019-05-06T12:38:43.971Z,49.79
2019-05-06T12:39:43.862Z,49.57
2019-05-06T12:40:43.765Z,49.57
2019-05-06T12:41:43.669Z,50.72
2019-05-06T12:42:43.571Z,50.72
2019-05-06T12:43:43.489Z,50.60
2019-05-06T12:44:43.404Z,51.97
2019-05-06T12:45:43.287Z,51.77
2019-05-06T12:46:43.221Z,51.48
2019-05-06T12:47:43.091Z,51.58
2019-05-06T12:48:44.049Z,51.68
2019-05-06T12:49:42.897Z,52.44
2019-05-06T12:50:43.201Z,52.83
2019-05-06T12:51:43.382Z,52.25
2019-05-06T12:52:44.131Z,52.15